Time;durP1;ratioP1;P1;durP2;ratioP2;P2;SDS_P1;SDS_P2;PMS_P1;PMS_P2;Temp;Humidity;BMP_temperature;BMP_pressure;BME280_temperature;BME280_humidity;BME280_pressure;Samples;Min_cycle;Max_cycle;Signal;HPM_P1;HPM_P2
2021/11/29 00:00:13;;;;;;;48.47;28.05;;;;;;;;;;4932725;29;20491;-77
2021/11/29 00:02:41;;;;;;;41.15;25.42;;;;;;;;;;4934422;29;20603;-78
2021/11/29 00:05:09;;;;;;;59.50;30.77;;;;;;;;;;4935905;29;20576;-81
2021/11/29 00:07:36;;;;;;;43.17;26.80;;;;;;;;;;4940521;28;20548;-76
2021/11/29 00:10:05;;;;;;;61.00;34.72;;;;;;;;;;4946801;28;20564;-80
2021/11/29 00:12:32;;;;;;;50.63;29.77;;;;;;;;;;4952313;28;20205;-76
2021/11/29 00:15:01;;;;;;;48.33;28.13;;;;;;;;;;4951319;29;20198;-79
2021/11/29 00:17:28;;;;;;;39.22;25.75;;;;;;;;;;4947347;28;20246;-76
2021/11/29 00:19:55;;;;;;;44.92;27.13;;;;;;;;;;4933710;29;20652;-75
2021/11/29 00:22:23;;;;;;;37.75;25.25;;;;;;;;;;4934720;29;20206;-76
2021/11/29 00:24:50;;;;;;;31.00;21.33;;;;;;;;;;4931932;29;20213;-77
2021/11/29 00:27:17;;;;;;;26.27;18.33;;;;;;;;;;4934572;29;20225;-81
2021/11/29 00:29:44;;;;;;;28.08;16.77;;;;;;;;;;4939758;29;20656;-77
2021/11/29 00:32:13;;;;;;;27.20;16.60;;;;;;;;;;4946774;28;20549;-79
2021/11/29 00:34:40;;;;;;;23.10;16.10;;;;;;;;;;4941062;28;20203;-77
2021/11/29 00:37:08;;;;;;;20.77;14.60;;;;;;;;;;4920103;29;20218;-80
2021/11/29 00:39:35;;;;;;;20.55;15.38;;;;;;;;;;4931807;29;20199;-81
2021/11/29 00:42:02;;;;;;;21.23;14.15;;;;;;;;;;4933294;29;20213;-79
2021/11/29 00:44:30;;;;;;;26.83;16.08;;;;;;;;;;4933950;28;20206;-79
2021/11/29 00:46:57;;;;;;;22.30;15.20;;;;;;;;;;4938080;28;20224;-76
2021/11/29 00:49:25;;;;;;;21.95;15.50;;;;;;;;;;4931765;29;20210;-78
2021/11/29 00:51:53;;;;;;;24.13;16.25;;;;;;;;;;4936340;29;20567;-76
2021/11/29 00:54:20;;;;;;;25.23;15.35;;;;;;;;;;4935680;29;20207;-78
2021/11/29 00:56:47;;;;;;;26.30;18.10;;;;;;;;;;4935860;29;20219;-79
2021/11/29 00:59:15;;;;;;;21.70;16.33;;;;;;;;;;4940660;28;20333;-78
2021/11/29 01:01:44;;;;;;;26.95;18.02;;;;;;;;;;4944046;29;20195;-78
2021/11/29 01:04:11;;;;;;;26.13;17.60;;;;;;;;;;4937779;29;20217;-80
2021/11/29 01:06:40;;;;;;;24.98;17.85;;;;;;;;;;4934610;29;20219;-78
2021/11/29 01:09:07;;;;;;;22.40;15.30;;;;;;;;;;4934872;29;20202;-77
2021/11/29 01:11:34;;;;;;;24.20;16.60;;;;;;;;;;4935793;29;20201;-77
2021/11/29 01:14:01;;;;;;;21.73;15.57;;;;;;;;;;4935015;29;20230;-78
2021/11/29 01:16:28;;;;;;;24.13;15.15;;;;;;;;;;4937641;28;20550;-80
2021/11/29 01:18:55;;;;;;;21.63;15.27;;;;;;;;;;4935204;28;20573;-77
2021/11/29 01:21:23;;;;;;;20.33;14.70;;;;;;;;;;4934442;29;20279;-77
2021/11/29 01:23:52;;;;;;;19.23;14.43;;;;;;;;;;4936094;29;20203;-77
2021/11/29 01:26:19;;;;;;;24.85;17.20;;;;;;;;;;4933047;29;20254;-79
2021/11/29 01:28:46;;;;;;;20.08;15.52;;;;;;;;;;4935036;29;20514;-78
2021/11/29 01:31:13;;;;;;;23.00;15.93;;;;;;;;;;4941517;29;20213;-75
2021/11/29 01:33:41;;;;;;;21.35;18.85;;;;;;;;;;4943181;28;20236;-79
2021/11/29 01:36:08;;;;;;;23.50;18.35;;;;;;;;;;4953806;28;20557;-77
2021/11/29 01:38:35;;;;;;;24.25;17.77;;;;;;;;;;4953228;28;20230;-77
2021/11/29 01:41:04;;;;;;;18.02;14.45;;;;;;;;;;4934169;29;20194;-76
2021/11/29 01:43:31;;;;;;;21.27;15.50;;;;;;;;;;4934098;29;20203;-79
2021/11/29 01:45:58;;;;;;;21.38;14.23;;;;;;;;;;4939881;29;20643;-76
2021/11/29 01:48:26;;;;;;;24.65;14.13;;;;;;;;;;4939988;28;20222;-78
2021/11/29 01:50:57;;;;;;;21.13;14.40;;;;;;;;;;4944943;28;20203;-80
2021/11/29 01:53:25;;;;;;;25.60;13.77;;;;;;;;;;4935325;29;20206;-78
2021/11/29 01:55:53;;;;;;;17.05;13.05;;;;;;;;;;4934633;29;20209;-78
2021/11/29 01:58:21;;;;;;;15.45;12.90;;;;;;;;;;4933779;29;20241;-78
2021/11/29 02:00:50;;;;;;;18.02;13.35;;;;;;;;;;4932684;29;20226;-77
2021/11/29 02:03:18;;;;;;;21.58;13.60;;;;;;;;;;4937144;29;20207;-77
2021/11/29 02:05:45;;;;;;;17.30;12.10;;;;;;;;;;4935823;29;20205;-81
2021/11/29 02:08:12;;;;;;;20.15;11.85;;;;;;;;;;4939349;29;20230;-78
2021/11/29 02:10:40;;;;;;;15.20;10.95;;;;;;;;;;4941499;29;20202;-75
2021/11/29 02:13:07;;;;;;;15.48;11.75;;;;;;;;;;4934031;29;20670;-80
2021/11/29 02:15:37;;;;;;;19.25;12.20;;;;;;;;;;4933020;29;20207;-74
2021/11/29 02:18:04;;;;;;;17.67;11.40;;;;;;;;;;4932272;29;20264;-79
2021/11/29 02:20:33;;;;;;;16.23;11.43;;;;;;;;;;4934667;29;20195;-80
2021/11/29 02:23:01;;;;;;;14.70;10.85;;;;;;;;;;4936209;29;20214;-78
2021/11/29 02:25:28;;;;;;;16.38;11.15;;;;;;;;;;4941978;29;20562;-79
2021/11/29 02:27:56;;;;;;;12.25;10.35;;;;;;;;;;4939083;29;20213;-81
2021/11/29 02:30:25;;;;;;;14.10;10.30;;;;;;;;;;4934375;29;20467;-80
2021/11/29 02:32:53;;;;;;;14.85;11.27;;;;;;;;;;4947427;28;20206;-77
2021/11/29 02:35:21;;;;;;;12.45;10.82;;;;;;;;;;4934742;29;20202;-79
2021/11/29 02:37:50;;;;;;;15.25;10.85;;;;;;;;;;4931563;29;20313;-76
2021/11/29 02:40:17;;;;;;;14.68;11.18;;;;;;;;;;4935336;29;20199;-78
2021/11/29 02:42:44;;;;;;;14.73;9.70;;;;;;;;;;4936158;29;20198;-78
2021/11/29 02:45:11;;;;;;;14.15;9.60;;;;;;;;;;4937033;28;20206;-80
2021/11/29 02:47:38;;;;;;;10.95;9.45;;;;;;;;;;4939655;28;20241;-75
2021/11/29 02:50:06;;;;;;;13.60;9.15;;;;;;;;;;4945724;29;20220;-78
2021/11/29 02:52:33;;;;;;;13.05;9.50;;;;;;;;;;4953478;29;20672;-77
2021/11/29 02:55:02;;;;;;;10.35;8.20;;;;;;;;;;4953389;29;20552;-77
2021/11/29 02:57:32;;;;;;;12.90;9.40;;;;;;;;;;4953139;28;20229;-78
2021/11/29 02:59:59;;;;;;;11.15;9.00;;;;;;;;;;4943390;29;20210;-78
2021/11/29 03:02:31;;;;;;;11.95;8.30;;;;;;;;;;4924010;29;20202;-80
2021/11/29 03:04:58;;;;;;;11.10;9.05;;;;;;;;;;4934949;29;20298;-83
2021/11/29 03:07:26;;;;;;;13.23;8.70;;;;;;;;;;4937040;29;20218;-75
2021/11/29 03:09:53;;;;;;;13.93;8.82;;;;;;;;;;4955540;28;20288;-79
2021/11/29 03:12:21;;;;;;;12.60;9.50;;;;;;;;;;4944537;28;20567;-80
2021/11/29 03:14:49;;;;;;;11.43;8.90;;;;;;;;;;4952452;28;20202;-76
2021/11/29 03:17:18;;;;;;;12.38;8.55;;;;;;;;;;4953154;28;20582;-79
2021/11/29 03:19:47;;;;;;;12.32;8.40;;;;;;;;;;4939245;29;20222;-78
2021/11/29 03:22:14;;;;;;;10.30;8.07;;;;;;;;;;4934217;29;20199;-77
2021/11/29 03:24:46;;;;;;;11.02;9.15;;;;;;;;;;4935852;29;20199;-75
2021/11/29 03:27:15;;;;;;;10.88;8.30;;;;;;;;;;4933820;29;20246;-75
2021/11/29 03:29:44;;;;;;;10.48;9.23;;;;;;;;;;4939339;28;20265;-75
2021/11/29 03:32:11;;;;;;;15.48;9.40;;;;;;;;;;4937363;28;20399;-79
2021/11/29 03:34:38;;;;;;;11.15;9.23;;;;;;;;;;4933137;29;20199;-78
2021/11/29 03:37:06;;;;;;;12.00;8.95;;;;;;;;;;4932694;29;20697;-79
2021/11/29 03:39:33;;;;;;;9.27;7.90;;;;;;;;;;4932525;29;20527;-76
2021/11/29 03:42:05;;;;;;;8.85;7.95;;;;;;;;;;4932202;29;20202;-78
2021/11/29 03:44:32;;;;;;;12.70;8.13;;;;;;;;;;4938898;29;20230;-79
2021/11/29 03:47:01;;;;;;;11.05;7.97;;;;;;;;;;4940247;28;20226;-78
2021/11/29 03:49:29;;;;;;;7.97;7.05;;;;;;;;;;4951283;28;20202;-78
2021/11/29 03:51:56;;;;;;;8.27;7.22;;;;;;;;;;4951259;28;20564;-77
2021/11/29 03:54:23;;;;;;;10.88;6.30;;;;;;;;;;4952786;29;20574;-76
2021/11/29 03:56:51;;;;;;;8.20;7.00;;;;;;;;;;4937312;28;20231;-77
2021/11/29 03:59:18;;;;;;;8.10;6.53;;;;;;;;;;4921476;29;20235;-80
2021/11/29 04:01:46;;;;;;;9.00;6.70;;;;;;;;;;4936212;29;20207;-78
2021/11/29 04:04:15;;;;;;;12.07;6.80;;;;;;;;;;4936426;29;20199;-76
2021/11/29 04:06:42;;;;;;;9.35;7.00;;;;;;;;;;4932939;29;20620;-76
2021/11/29 04:09:09;;;;;;;7.85;7.05;;;;;;;;;;4933051;29;20198;-78
2021/11/29 04:11:39;;;;;;;9.20;6.70;;;;;;;;;;4931840;29;20269;-80
2021/11/29 04:14:06;;;;;;;6.97;5.88;;;;;;;;;;4932211;29;20681;-78
2021/11/29 04:16:33;;;;;;;8.07;6.30;;;;;;;;;;4938173;28;20199;-81
2021/11/29 04:19:00;;;;;;;8.35;5.70;;;;;;;;;;4940621;29;20211;-75
2021/11/29 04:21:29;;;;;;;6.90;6.20;;;;;;;;;;4930993;29;20210;-79
2021/11/29 04:23:57;;;;;;;10.35;6.72;;;;;;;;;;4932324;29;20303;-79
2021/11/29 04:26:25;;;;;;;9.35;5.72;;;;;;;;;;4931205;29;20609;-81
2021/11/29 04:28:54;;;;;;;7.55;6.30;;;;;;;;;;4932761;29;20784;-79
2021/11/29 04:31:21;;;;;;;7.63;6.40;;;;;;;;;;4933640;29;20198;-77
2021/11/29 04:33:49;;;;;;;8.00;5.55;;;;;;;;;;4938928;28;20199;-76
2021/11/29 04:36:16;;;;;;;6.30;5.68;;;;;;;;;;4935377;28;20225;-79
2021/11/29 04:38:44;;;;;;;9.10;6.03;;;;;;;;;;4930948;29;20608;-77
2021/11/29 04:41:12;;;;;;;9.25;5.25;;;;;;;;;;4932407;29;20202;-77
2021/11/29 04:43:39;;;;;;;6.85;4.90;;;;;;;;;;4931642;29;20209;-80
2021/11/29 04:46:06;;;;;;;7.82;5.80;;;;;;;;;;4930179;29;20205;-76
2021/11/29 04:48:33;;;;;;;8.38;5.82;;;;;;;;;;4924770;29;20225;-77
2021/11/29 04:51:01;;;;;;;6.55;5.65;;;;;;;;;;4939139;28;20783;-76
2021/11/29 04:53:28;;;;;;;5.72;5.13;;;;;;;;;;4947118;28;20571;-78
2021/11/29 04:55:56;;;;;;;6.65;4.88;;;;;;;;;;4950204;28;20823;-75
2021/11/29 04:58:23;;;;;;;8.00;5.60;;;;;;;;;;4949658;28;20225;-79
2021/11/29 05:00:52;;;;;;;6.28;4.90;;;;;;;;;;4950953;28;20202;-77
2021/11/29 05:03:19;;;;;;;7.25;4.90;;;;;;;;;;4941239;28;20203;-81
2021/11/29 05:05:47;;;;;;;7.78;5.57;;;;;;;;;;4938277;29;20195;-75
2021/11/29 05:08:14;;;;;;;6.70;5.38;;;;;;;;;;4943012;28;20241;-79
2021/11/29 05:10:41;;;;;;;9.13;5.70;;;;;;;;;;4950851;28;20214;-78
2021/11/29 05:13:10;;;;;;;5.53;4.82;;;;;;;;;;4951253;28;20202;-77
2021/11/29 05:15:37;;;;;;;7.68;5.65;;;;;;;;;;4951603;28;20648;-75
2021/11/29 05:18:04;;;;;;;9.15;5.75;;;;;;;;;;4945784;28;20229;-79
2021/11/29 05:20:32;;;;;;;7.25;6.00;;;;;;;;;;4937009;28;20209;-77
2021/11/29 05:22:59;;;;;;;6.70;5.95;;;;;;;;;;4940815;29;20195;-78
2021/11/29 05:25:26;;;;;;;7.78;6.97;;;;;;;;;;4950925;29;20659;-77
2021/11/29 05:27:53;;;;;;;7.55;6.57;;;;;;;;;;4950719;28;20718;-78
2021/11/29 05:30:22;;;;;;;11.30;8.02;;;;;;;;;;4933671;29;20665;-77
2021/11/29 05:32:50;;;;;;;8.07;7.28;;;;;;;;;;4932129;29;20636;-79
2021/11/29 05:35:18;;;;;;;8.93;7.70;;;;;;;;;;4933694;29;20287;-78
2021/11/29 05:37:45;;;;;;;8.98;8.05;;;;;;;;;;4936442;29;20223;-76
2021/11/29 05:40:13;;;;;;;12.98;8.32;;;;;;;;;;4936262;29;20237;-79
2021/11/29 05:42:40;;;;;;;9.05;7.90;;;;;;;;;;4940507;28;20212;-81
2021/11/29 05:45:08;;;;;;;10.13;9.05;;;;;;;;;;4941523;28;20213;-76
2021/11/29 05:47:36;;;;;;;11.60;9.13;;;;;;;;;;4949277;28;20226;-76
2021/11/29 05:50:04;;;;;;;13.60;9.93;;;;;;;;;;4933888;28;20226;-76
2021/11/29 05:52:31;;;;;;;12.13;9.10;;;;;;;;;;4916096;29;20218;-78
2021/11/29 05:54:58;;;;;;;11.23;8.52;;;;;;;;;;4916302;29;20203;-78
2021/11/29 05:57:26;;;;;;;13.88;10.05;;;;;;;;;;4939026;28;20962;-74
2021/11/29 05:59:53;;;;;;;10.00;8.95;;;;;;;;;;4941712;28;20214;-76
2021/11/29 06:02:20;;;;;;;10.75;9.43;;;;;;;;;;4954009;28;20214;-79
2021/11/29 06:04:48;;;;;;;13.07;8.63;;;;;;;;;;4938201;29;20199;-79
2021/11/29 06:07:16;;;;;;;11.48;9.55;;;;;;;;;;4935202;29;20579;-78
2021/11/29 06:09:43;;;;;;;10.23;8.32;;;;;;;;;;4935191;29;20286;-79
2021/11/29 06:12:10;;;;;;;10.73;9.43;;;;;;;;;;4935694;29;20214;-78
2021/11/29 06:14:37;;;;;;;12.25;9.23;;;;;;;;;;4936508;29;20203;-78
2021/11/29 06:17:04;;;;;;;11.75;10.10;;;;;;;;;;4935477;29;20236;-80
2021/11/29 06:19:32;;;;;;;11.57;9.77;;;;;;;;;;4939472;29;20237;-78
2021/11/29 06:22:00;;;;;;;13.07;10.13;;;;;;;;;;4942876;28;20203;-79
2021/11/29 06:24:27;;;;;;;15.63;10.90;;;;;;;;;;4953395;29;20210;-80
2021/11/29 06:26:54;;;;;;;20.80;15.30;;;;;;;;;;4953385;28;20255;-78
2021/11/29 06:29:22;;;;;;;14.77;12.40;;;;;;;;;;4953185;28;20198;-78
2021/11/29 06:31:55;;;;;;;17.98;11.85;;;;;;;;;;4954442;29;20565;-77
2021/11/29 06:34:25;;;;;;;15.70;11.55;;;;;;;;;;4934369;29;20211;-78
2021/11/29 06:36:53;;;;;;;13.25;10.95;;;;;;;;;;4935193;29;20246;-78
2021/11/29 06:39:22;;;;;;;15.80;11.73;;;;;;;;;;4935180;29;20222;-79
2021/11/29 06:41:49;;;;;;;19.35;12.00;;;;;;;;;;4941133;29;20194;-80
2021/11/29 06:44:17;;;;;;;14.20;10.40;;;;;;;;;;4958157;28;20667;-77
2021/11/29 06:46:44;;;;;;;15.77;11.57;;;;;;;;;;4944938;28;20226;-81
2021/11/29 06:49:11;;;;;;;16.67;12.27;;;;;;;;;;4951049;28;20198;-75
2021/11/29 06:51:38;;;;;;;15.55;11.90;;;;;;;;;;4944654;28;20210;-79
2021/11/29 06:54:05;;;;;;;18.42;12.38;;;;;;;;;;4934060;29;20461;-76
2021/11/29 06:56:34;;;;;;;20.13;13.30;;;;;;;;;;4937072;29;20197;-78
2021/11/29 06:59:01;;;;;;;17.73;12.90;;;;;;;;;;4941475;28;20222;-77
2021/11/29 07:01:28;;;;;;;18.33;12.73;;;;;;;;;;4945863;28;20198;-78
2021/11/29 07:03:55;;;;;;;19.08;12.77;;;;;;;;;;4953365;28;20213;-81
2021/11/29 07:06:22;;;;;;;17.75;11.95;;;;;;;;;;4943591;28;20290;-79
2021/11/29 07:08:53;;;;;;;16.05;12.25;;;;;;;;;;4934255;29;20202;-76
2021/11/29 07:11:23;;;;;;;16.02;12.02;;;;;;;;;;4934330;29;20210;-77
2021/11/29 07:13:52;;;;;;;15.55;10.98;;;;;;;;;;4940264;29;20190;-78
2021/11/29 07:16:19;;;;;;;15.32;11.30;;;;;;;;;;4938029;28;20211;-79
2021/11/29 07:18:46;;;;;;;14.13;10.52;;;;;;;;;;4933365;29;20229;-79
2021/11/29 07:21:13;;;;;;;17.48;11.13;;;;;;;;;;4933997;29;20213;-79
2021/11/29 07:23:40;;;;;;;16.52;11.98;;;;;;;;;;4933543;29;20846;-79
2021/11/29 07:26:08;;;;;;;17.45;11.50;;;;;;;;;;4932986;29;20213;-80
2021/11/29 07:28:36;;;;;;;17.95;12.63;;;;;;;;;;4939511;29;20238;-78
2021/11/29 07:31:04;;;;;;;25.92;11.18;;;;;;;;;;4939731;28;20206;-75
2021/11/29 07:33:31;;;;;;;15.25;10.65;;;;;;;;;;4948046;28;20211;-77
2021/11/29 07:35:58;;;;;;;18.23;10.40;;;;;;;;;;4930993;29;20210;-78
2021/11/29 07:38:26;;;;;;;18.23;11.40;;;;;;;;;;4934516;29;20252;-75
2021/11/29 07:40:53;;;;;;;16.02;10.95;;;;;;;;;;4935488;29;20198;-80
2021/11/29 07:43:20;;;;;;;16.33;10.60;;;;;;;;;;4931719;29;20391;-80
2021/11/29 07:45:47;;;;;;;16.90;11.02;;;;;;;;;;4939930;28;20565;-76
2021/11/29 07:48:17;;;;;;;16.27;10.50;;;;;;;;;;4933160;28;20222;-78
2021/11/29 07:50:44;;;;;;;20.92;11.15;;;;;;;;;;4928804;29;20215;-77
2021/11/29 07:53:11;;;;;;;21.42;11.02;;;;;;;;;;4923773;29;20201;-79
2021/11/29 07:55:39;;;;;;;21.35;13.18;;;;;;;;;;4932045;29;20205;-78
2021/11/29 07:58:06;;;;;;;20.60;11.48;;;;;;;;;;4933622;29;20241;-79
2021/11/29 08:00:35;;;;;;;20.08;10.85;;;;;;;;;;4937920;29;20226;-76
2021/11/29 08:03:02;;;;;;;21.02;10.85;;;;;;;;;;4940677;28;20191;-79
2021/11/29 08:05:32;;;;;;;17.55;12.35;;;;;;;;;;4951313;28;20760;-75
2021/11/29 08:08:00;;;;;;;17.08;9.75;;;;;;;;;;4967270;28;20221;-77
2021/11/29 08:10:27;;;;;;;17.77;12.75;;;;;;;;;;4942081;29;20259;-75
2021/11/29 08:12:55;;;;;;;20.48;12.05;;;;;;;;;;4931124;29;20552;-80
2021/11/29 08:15:22;;;;;;;19.77;11.10;;;;;;;;;;4930182;29;20198;-77
2021/11/29 08:17:50;;;;;;;17.60;11.15;;;;;;;;;;4936934;29;20222;-77
2021/11/29 08:20:19;;;;;;;21.00;11.70;;;;;;;;;;4940280;29;20222;-78
2021/11/29 08:22:48;;;;;;;21.50;10.93;;;;;;;;;;4932745;29;20215;-86
2021/11/29 08:25:15;;;;;;;19.17;11.60;;;;;;;;;;4932877;29;20348;-77
2021/11/29 08:27:42;;;;;;;19.98;11.15;;;;;;;;;;4932201;29;20225;-76
2021/11/29 08:30:12;;;;;;;18.08;11.82;;;;;;;;;;4932496;29;20198;-78
2021/11/29 08:32:41;;;;;;;16.45;10.77;;;;;;;;;;4934228;29;20194;-78
2021/11/29 08:35:09;;;;;;;18.23;11.57;;;;;;;;;;4935002;29;20225;-77
2021/11/29 08:37:37;;;;;;;20.85;11.57;;;;;;;;;;4932432;29;20222;-81
2021/11/29 08:40:06;;;;;;;14.02;8.98;;;;;;;;;;4938568;29;20222;-81
2021/11/29 08:42:34;;;;;;;15.38;10.50;;;;;;;;;;4939334;29;20215;-77
2021/11/29 08:45:01;;;;;;;17.52;11.15;;;;;;;;;;4947409;28;20198;-76
2021/11/29 08:47:28;;;;;;;17.30;10.95;;;;;;;;;;4932499;29;20231;-79
2021/11/29 08:49:55;;;;;;;14.70;9.75;;;;;;;;;;4933290;29;20199;-74
2021/11/29 08:52:24;;;;;;;18.17;9.93;;;;;;;;;;4931818;29;20648;-79
2021/11/29 08:54:51;;;;;;;16.20;10.10;;;;;;;;;;4932872;29;20676;-77
2021/11/29 08:57:19;;;;;;;14.50;8.98;;;;;;;;;;4930505;29;20573;-77
2021/11/29 08:59:47;;;;;;;14.07;8.93;;;;;;;;;;4932928;29;20222;-78
2021/11/29 09:02:14;;;;;;;22.60;10.70;;;;;;;;;;4937796;29;20198;-75
2021/11/29 09:04:41;;;;;;;16.85;9.52;;;;;;;;;;4939351;29;20572;-76
2021/11/29 09:07:08;;;;;;;12.82;8.80;;;;;;;;;;4948706;28;20222;-77
2021/11/29 09:09:35;;;;;;;15.30;9.85;;;;;;;;;;4951221;28;20198;-79
2021/11/29 09:12:04;;;;;;;13.32;8.93;;;;;;;;;;4955090;28;20312;-79
2021/11/29 09:14:32;;;;;;;21.58;11.00;;;;;;;;;;4939110;28;20699;-83
2021/11/29 09:16:59;;;;;;;13.98;8.23;;;;;;;;;;4932165;29;20232;-77
2021/11/29 09:19:27;;;;;;;15.43;9.05;;;;;;;;;;4938180;29;20577;-78
2021/11/29 09:21:55;;;;;;;14.52;8.75;;;;;;;;;;4937082;29;20360;-80
2021/11/29 09:24:22;;;;;;;12.57;8.98;;;;;;;;;;4940130;29;20570;-77
2021/11/29 09:26:49;;;;;;;14.98;9.68;;;;;;;;;;4941108;28;20230;-77
2021/11/29 09:29:17;;;;;;;14.43;9.40;;;;;;;;;;4953064;28;20210;-80
2021/11/29 09:31:45;;;;;;;12.85;8.77;;;;;;;;;;4942477;28;20203;-78
2021/11/29 09:34:13;;;;;;;14.02;8.07;;;;;;;;;;4935251;29;20213;-76
2021/11/29 09:36:40;;;;;;;17.80;9.98;;;;;;;;;;4935142;29;20245;-77
2021/11/29 09:39:08;;;;;;;11.75;7.85;;;;;;;;;;4936235;29;20569;-75
2021/11/29 09:41:36;;;;;;;14.00;8.48;;;;;;;;;;4940563;28;20199;-78
2021/11/29 09:44:04;;;;;;;14.07;8.63;;;;;;;;;;4941153;29;20205;-80
2021/11/29 09:46:31;;;;;;;15.27;9.05;;;;;;;;;;4934302;29;20655;-75
2021/11/29 09:49:00;;;;;;;11.75;8.38;;;;;;;;;;4935755;29;20209;-76
2021/11/29 09:51:27;;;;;;;10.35;7.22;;;;;;;;;;4935664;29;20611;-75
2021/11/29 09:53:54;;;;;;;12.00;8.57;;;;;;;;;;4932951;29;20283;-76
2021/11/29 09:56:22;;;;;;;20.63;7.57;;;;;;;;;;4936800;28;20206;-80
2021/11/29 09:58:49;;;;;;;12.85;7.07;;;;;;;;;;4939180;28;20226;-77
2021/11/29 10:01:17;;;;;;;10.93;6.07;;;;;;;;;;4939723;28;20229;-78
2021/11/29 10:03:44;;;;;;;10.45;6.78;;;;;;;;;;4932573;29;20203;-78
2021/11/29 10:06:13;;;;;;;12.52;8.00;;;;;;;;;;4935279;29;20203;-78
2021/11/29 10:08:41;;;;;;;9.25;7.47;;;;;;;;;;4935594;29;20203;-76
2021/11/29 10:11:11;;;;;;;13.27;6.70;;;;;;;;;;4937600;28;20211;-82
2021/11/29 10:13:53;;;;;;;8.68;6.60;;;;;;;;;;4942798;28;20198;-80
2021/11/29 10:16:35;;;;;;;9.55;6.97;;;;;;;;;;4948050;28;20605;-79
2021/11/29 10:19:03;;;;;;;18.02;7.25;;;;;;;;;;4946440;28;20195;-79
2021/11/29 10:21:32;;;;;;;12.68;8.20;;;;;;;;;;4934652;29;20237;-83
2021/11/29 10:24:00;;;;;;;8.98;7.57;;;;;;;;;;4934581;29;20207;-77
2021/11/29 10:26:29;;;;;;;12.98;8.15;;;;;;;;;;4935663;29;20233;-74
2021/11/29 10:28:58;;;;;;;9.68;7.43;;;;;;;;;;4939862;29;20206;-81
2021/11/29 10:31:27;;;;;;;12.73;8.15;;;;;;;;;;4944988;28;20281;-78
2021/11/29 10:33:58;;;;;;;11.18;7.95;;;;;;;;;;4952466;28;20682;-79
2021/11/29 10:36:26;;;;;;;13.73;8.45;;;;;;;;;;4930788;29;20207;-77
2021/11/29 10:38:58;;;;;;;16.80;9.07;;;;;;;;;;4934234;29;20199;-79
2021/11/29 10:41:26;;;;;;;14.13;8.95;;;;;;;;;;4933526;29;20335;-78
2021/11/29 10:43:54;;;;;;;12.15;7.43;;;;;;;;;;4941853;28;20209;-75
2021/11/29 10:46:23;;;;;;;10.23;6.80;;;;;;;;;;4941574;29;20201;-77
2021/11/29 10:48:50;;;;;;;10.80;7.90;;;;;;;;;;4934180;29;20217;-80
2021/11/29 10:51:19;;;;;;;12.23;7.45;;;;;;;;;;4932936;29;20676;-78
2021/11/29 10:53:47;;;;;;;11.57;7.65;;;;;;;;;;4932979;29;20206;-77
2021/11/29 10:56:16;;;;;;;10.10;7.10;;;;;;;;;;4931075;29;20673;-79
2021/11/29 10:58:44;;;;;;;10.60;7.15;;;;;;;;;;4936525;29;20243;-75
2021/11/29 11:01:11;;;;;;;12.98;6.55;;;;;;;;;;4935557;29;20515;-76
2021/11/29 11:03:54;;;;;;;15.52;6.57;;;;;;;;;;4936548;29;20209;-78
2021/11/29 11:06:36;;;;;;;14.50;6.38;;;;;;;;;;4953724;28;20664;-78
2021/11/29 11:09:10;;;;;;;8.93;6.43;;;;;;;;;;4968060;28;20217;-81
2021/11/29 11:11:42;;;;;;;13.05;6.55;;;;;;;;;;4969761;28;20646;-80
2021/11/29 11:14:11;;;;;;;10.63;7.00;;;;;;;;;;4969388;28;20208;-80
2021/11/29 11:16:40;;;;;;;12.73;6.60;;;;;;;;;;4968371;28;20269;-79
2021/11/29 11:19:07;;;;;;;12.63;7.20;;;;;;;;;;4951433;28;20777;-76
2021/11/29 11:21:34;;;;;;;9.77;6.28;;;;;;;;;;4967553;28;20224;-74
2021/11/29 11:24:16;;;;;;;11.57;7.32;;;;;;;;;;4968404;28;20224;-79
2021/11/29 11:26:46;;;;;;;13.60;7.10;;;;;;;;;;4957234;28;20666;-80
2021/11/29 11:29:13;;;;;;;16.75;8.15;;;;;;;;;;4969338;28;20209;-76
2021/11/29 11:31:40;;;;;;;13.85;7.28;;;;;;;;;;4968359;28;20201;-78
2021/11/29 11:34:08;;;;;;;19.40;9.00;;;;;;;;;;4970126;28;20246;-78
2021/11/29 11:36:37;;;;;;;14.18;8.40;;;;;;;;;;4971514;28;20319;-80
2021/11/29 11:39:05;;;;;;;10.90;7.47;;;;;;;;;;4968642;28;20204;-80
2021/11/29 11:41:33;;;;;;;14.73;7.25;;;;;;;;;;4937645;29;20225;-84
2021/11/29 11:44:04;;;;;;;13.25;6.70;;;;;;;;;;4955409;28;20198;-80
2021/11/29 11:46:32;;;;;;;14.30;7.15;;;;;;;;;;4947539;28;20210;-80
2021/11/29 11:48:59;;;;;;;16.13;7.10;;;;;;;;;;4952153;28;20194;-77
2021/11/29 11:51:27;;;;;;;15.27;8.05;;;;;;;;;;4952466;28;20213;-79
2021/11/29 11:53:54;;;;;;;12.30;7.35;;;;;;;;;;4952601;28;20208;-78
2021/11/29 11:56:21;;;;;;;10.93;7.05;;;;;;;;;;4939908;28;20207;-82
2021/11/29 11:58:53;;;;;;;11.60;7.40;;;;;;;;;;4938850;28;20232;-76
2021/11/29 12:01:24;;;;;;;10.43;6.78;;;;;;;;;;4954867;28;20771;-76
2021/11/29 12:03:52;;;;;;;12.40;6.88;;;;;;;;;;4952058;28;20208;-77
2021/11/29 12:06:20;;;;;;;10.98;6.70;;;;;;;;;;4950713;28;20208;-78
2021/11/29 12:08:48;;;;;;;14.70;7.25;;;;;;;;;;4952542;28;20206;-76
2021/11/29 12:11:31;;;;;;;14.63;7.88;;;;;;;;;;4958842;28;20210;-81
2021/11/29 12:14:03;;;;;;;18.27;7.18;;;;;;;;;;4929829;29;20213;-79
2021/11/29 12:16:33;;;;;;;12.52;6.88;;;;;;;;;;4939806;28;20592;-80
2021/11/29 12:19:01;;;;;;;10.73;7.18;;;;;;;;;;4948776;28;20212;-79
2021/11/29 12:21:29;;;;;;;14.70;7.78;;;;;;;;;;4950499;28;20699;-79
2021/11/29 12:23:58;;;;;;;12.50;7.63;;;;;;;;;;4941994;28;20210;-78
2021/11/29 12:26:40;;;;;;;13.63;7.60;;;;;;;;;;4929707;29;20213;-79
2021/11/29 12:29:07;;;;;;;10.68;7.20;;;;;;;;;;4932906;29;20202;-77
2021/11/29 12:31:37;;;;;;;13.23;7.63;;;;;;;;;;4934334;29;20198;-76
2021/11/29 12:34:06;;;;;;;11.35;7.88;;;;;;;;;;4931279;29;20209;-76
2021/11/29 12:36:48;;;;;;;11.32;7.13;;;;;;;;;;4936993;28;20206;-76
2021/11/29 12:39:40;;;;;;;9.50;6.00;;;;;;;;;;4937334;28;20206;-77
2021/11/29 12:42:07;;;;;;;11.02;6.53;;;;;;;;;;4921620;29;20223;-76
2021/11/29 12:44:45;;;;;;;10.93;6.85;;;;;;;;;;4932699;29;20207;-77
2021/11/29 12:47:19;;;;;;;10.98;7.00;;;;;;;;;;4934786;29;20226;-77
2021/11/29 12:49:46;;;;;;;13.63;7.43;;;;;;;;;;4934655;29;20367;-77
2021/11/29 12:52:34;;;;;;;11.52;7.20;;;;;;;;;;4937313;29;20205;-76
2021/11/29 12:55:02;;;;;;;17.48;7.45;;;;;;;;;;4939013;29;20262;-77
2021/11/29 12:57:33;;;;;;;14.18;7.90;;;;;;;;;;4938334;29;21092;-75
2021/11/29 13:00:01;;;;;;;16.35;8.90;;;;;;;;;;4957057;28;20242;-75
2021/11/29 13:02:43;;;;;;;14.50;8.70;;;;;;;;;;4956206;28;20226;-77
2021/11/29 13:05:25;;;;;;;14.13;8.05;;;;;;;;;;4949651;28;20285;-76
2021/11/29 13:08:02;;;;;;;9.45;6.30;;;;;;;;;;4936201;29;20697;-78
2021/11/29 13:10:44;;;;;;;10.65;6.38;;;;;;;;;;4917389;29;20207;-77
2021/11/29 13:13:26;;;;;;;10.70;6.63;;;;;;;;;;4926237;29;20202;-78
2021/11/29 13:15:54;;;;;;;16.48;7.63;;;;;;;;;;4943837;28;20206;-78
2021/11/29 13:18:36;;;;;;;12.05;7.05;;;;;;;;;;4944948;28;20681;-80
2021/11/29 13:21:03;;;;;;;8.65;5.50;;;;;;;;;;4916574;29;20223;-76
2021/11/29 13:23:32;;;;;;;9.77;6.07;;;;;;;;;;4915726;29;20212;-77
2021/11/29 13:26:02;;;;;;;12.43;7.10;;;;;;;;;;4916888;29;20214;-77
2021/11/29 13:28:29;;;;;;;11.07;7.00;;;;;;;;;;4933571;28;20280;-79
2021/11/29 13:30:56;;;;;;;19.20;9.07;;;;;;;;;;4941819;28;20202;-78
2021/11/29 13:33:24;;;;;;;11.40;7.60;;;;;;;;;;4935223;28;20211;-77
2021/11/29 13:35:51;;;;;;;16.05;7.45;;;;;;;;;;4935486;29;20213;-75
2021/11/29 13:38:24;;;;;;;13.13;8.55;;;;;;;;;;4935504;29;20223;-79
2021/11/29 13:40:53;;;;;;;11.95;8.10;;;;;;;;;;4935366;29;20226;-74
2021/11/29 13:43:24;;;;;;;9.68;8.13;;;;;;;;;;4936017;28;20237;-76
2021/11/29 13:45:52;;;;;;;9.50;7.97;;;;;;;;;;4940797;28;20668;-72
2021/11/29 13:48:20;;;;;;;13.52;7.35;;;;;;;;;;4949881;28;20232;-73
2021/11/29 13:50:52;;;;;;;7.53;6.22;;;;;;;;;;4939819;28;20198;-75
2021/11/29 13:53:20;;;;;;;16.95;7.63;;;;;;;;;;4931416;29;20203;-73
2021/11/29 13:55:49;;;;;;;12.23;8.15;;;;;;;;;;4934190;29;20301;-76
2021/11/29 13:58:19;;;;;;;9.82;7.78;;;;;;;;;;4935358;28;20718;-77
2021/11/29 14:00:46;;;;;;;14.77;7.57;;;;;;;;;;4957473;28;20599;-77
2021/11/29 14:03:15;;;;;;;12.95;6.00;;;;;;;;;;4939162;29;20205;-75
2021/11/29 14:05:44;;;;;;;13.65;6.05;;;;;;;;;;4935461;29;20286;-80
2021/11/29 14:08:13;;;;;;;12.68;6.68;;;;;;;;;;4935460;29;20313;-77
2021/11/29 14:10:42;;;;;;;8.07;5.82;;;;;;;;;;4933131;29;20230;-78
2021/11/29 14:13:11;;;;;;;13.02;6.95;;;;;;;;;;4916505;29;20208;-79
2021/11/29 14:15:53;;;;;;;11.10;6.35;;;;;;;;;;4942426;28;20199;-78
2021/11/29 14:18:26;;;;;;;12.65;7.55;;;;;;;;;;4950421;28;20684;-78
2021/11/29 14:20:53;;;;;;;11.15;6.75;;;;;;;;;;4935466;29;20213;-77
2021/11/29 14:23:21;;;;;;;11.40;7.65;;;;;;;;;;4934041;29;20719;-77
2021/11/29 14:25:48;;;;;;;6.95;6.00;;;;;;;;;;4931221;29;20207;-76
2021/11/29 14:28:15;;;;;;;9.05;5.95;;;;;;;;;;4932047;29;20226;-79
2021/11/29 14:30:43;;;;;;;12.45;7.18;;;;;;;;;;4940552;29;20213;-77
2021/11/29 14:33:10;;;;;;;9.63;6.25;;;;;;;;;;4957217;28;20207;-77
2021/11/29 14:35:39;;;;;;;13.55;7.18;;;;;;;;;;4934266;29;20213;-76